Previous Day
Next Day
Current Day
SHEF ID: FVSO2 FAIRVIEW
STATION TYPE: Mesonet
PRECIP AIR-TEMP WIND-DIRWIND-SPEED REL-HUMID SOLAR-RAD
in F deg mph % W/m2
Raw-Meson Raw-Meson Raw-Meson Raw-Meson Raw-Meson Raw-Meson
(US/Central)
05/24 00:00 0.00 62.91 154.75 8.50 92.75 0.00
05/24 01:00 0.00 62.15 158.50 8.84 93.50 0.00
05/24 02:00 0.00 61.38 151.00 4.81 95.25 0.00
05/24 03:00 0.00 60.13 127.75 4.09 97.50 0.00
05/24 04:00 0.00 60.48 150.00 4.70 98.00 0.00
05/24 05:00 0.00 60.80 147.25 4.30 98.00 0.00
05/24 06:00 0.00 61.56 130.00 3.75 98.00 0.00
05/24 07:00 0.00 61.97 109.50 2.74 98.00 10.75
05/24 08:00 0.00 63.41 120.00 4.14 98.00 31.75
05/24 09:00 0.00 65.25 118.00 6.38 95.00 109.75
05/24 10:00 0.00 68.68 150.25 7.44 86.50 231.25
05/24 11:00 0.00 70.34 165.50 8.61 80.75 200.75
05/24 12:00 0.00 71.64 169.75 9.51 78.50 215.00
05/24 13:00 0.00 71.38 151.75 8.39 80.00 114.75
05/24 14:00 0.00 71.20 156.50 11.19 81.75 171.25
05/24 15:00 0.00 71.42 139.50 11.46 85.50 259.25
05/24 16:00 0.00 73.49 149.00 12.14 79.50 292.50
05/24 17:00 0.00 73.94 150.00 14.42 79.00 269.00
05/24 18:00 0.00 71.06 144.50 16.27 88.50 266.25
05/24 19:00 0.00 70.03 154.00 14.43 90.25 97.50
05/24 20:00 0.00 69.84 152.75 12.25 88.50 34.00
05/24 21:00 0.00 69.31 151.50 10.46 89.50 6.50
05/24 22:00 0.00 68.54 144.50 9.95 91.75 0.00
05/24 23:00 ---- 67.69 136.00 9.06 93.75 0.00